Time;durP1;ratioP1;P1;durP2;ratioP2;P2;SDS_P1;SDS_P2;PMS_P1;PMS_P2;Temp;Humidity;BMP_temperature;BMP_pressure;BME280_temperature;BME280_humidity;BME280_pressure;Samples;Min_cycle;Max_cycle;Signal;HPM_P1;HPM_P2
2022/04/26 03:38:06;;;;;;;7.45;3.65;;;6.80;99.90;;;;;;5093306;28;20059;-62
2022/04/26 03:40:31;;;;;;;11.68;3.65;;;6.80;99.90;;;;;;5093037;28;20040;-63
2022/04/26 03:42:57;;;;;;;10.25;3.55;;;6.80;99.90;;;;;;5092168;28;20136;-62
2022/04/26 03:45:23;;;;;;;8.63;3.78;;;6.50;99.90;;;;;;5092704;28;20044;-63
2022/04/26 03:47:49;;;;;;;7.90;3.20;;;6.90;99.90;;;;;;5093191;28;20100;-62
2022/04/26 03:50:15;;;;;;;11.18;4.93;;;6.80;99.90;;;;;;5092883;28;20070;-63
2022/04/26 03:52:40;;;;;;;10.15;3.60;;;6.70;99.90;;;;;;5093065;28;20050;-66
2022/04/26 03:55:07;;;;;;;11.13;3.85;;;6.90;99.90;;;;;;5092958;28;20044;-61
2022/04/26 03:57:33;;;;;;;6.45;3.45;;;6.70;99.90;;;;;;5092988;28;20044;-63
2022/04/26 03:59:58;;;;;;;12.52;3.67;;;6.60;99.90;;;;;;5093031;28;20114;-63
2022/04/26 04:02:24;;;;;;;9.70;3.67;;;6.90;99.90;;;;;;5092971;28;20047;-62
2022/04/26 04:04:49;;;;;;;12.07;3.92;;;6.90;99.90;;;;;;5091671;28;20079;-62
2022/04/26 04:07:15;;;;;;;10.75;3.88;;;7.00;99.90;;;;;;5092723;28;20093;-62
2022/04/26 04:09:41;;;;;;;11.93;4.10;;;6.80;99.90;;;;;;5092683;28;20044;-62
2022/04/26 04:12:07;;;;;;;7.82;4.00;;;6.70;99.90;;;;;;5092637;28;20377;-62
2022/04/26 04:14:33;;;;;;;;;;;6.60;99.90;;;;;;5091975;28;20135;-62
2022/04/26 04:16:58;;;;;;;11.05;3.75;;;6.70;99.90;;;;;;5092759;28;20010;-61
2022/04/26 04:19:25;;;;;;;11.50;4.15;;;6.90;99.90;;;;;;5092661;28;20103;-62
2022/04/26 04:21:51;;;;;;;9.13;3.97;;;6.60;99.90;;;;;;5092629;28;20048;-62
2022/04/26 04:24:18;;;;;;;5.63;3.92;;;6.90;99.90;;;;;;5092409;28;20088;-62
2022/04/26 04:26:44;;;;;;;5.53;3.63;;;6.90;99.90;;;;;;5092964;28;20563;-62
2022/04/26 04:29:11;;;;;;;9.68;3.80;;;6.90;99.90;;;;;;5090957;28;20087;-62
2022/04/26 04:31:37;;;;;;;8.18;3.95;;;6.90;99.90;;;;;;5091431;28;20385;-62
2022/04/26 04:34:03;;;;;;;13.30;4.55;;;6.90;99.90;;;;;;5092386;28;20054;-62
2022/04/26 04:36:29;;;;;;;9.10;3.90;;;7.00;99.90;;;;;;5092492;28;20130;-63
2022/04/26 04:38:56;;;;;;;11.80;5.35;;;7.20;99.90;;;;;;5092326;28;20127;-64
2022/04/26 04:41:22;;;;;;;8.20;4.10;;;7.20;99.90;;;;;;5092459;28;20048;-61
2022/04/26 04:43:49;;;;;;;10.88;4.45;;;7.50;99.90;;;;;;5092600;28;20117;-63
2022/04/26 04:46:14;;;;;;;;;;;7.30;99.90;;;;;;5092816;28;20084;-62
2022/04/26 04:48:40;;;;;;;12.50;4.57;;;7.20;99.90;;;;;;5092500;28;20343;-63
2022/04/26 04:51:07;;;;;;;10.32;3.88;;;7.40;99.90;;;;;;5091026;28;20435;-61
2022/04/26 04:53:33;;;;;;;8.65;4.85;;;7.20;99.90;;;;;;5092265;28;20135;-62
2022/04/26 04:55:59;;;;;;;15.40;4.38;;;7.40;99.90;;;;;;5092221;28;20079;-63
2022/04/26 04:58:25;;;;;;;11.70;4.43;;;7.50;99.90;;;;;;5092370;28;20522;-61
2022/04/26 05:00:51;;;;;;;10.63;4.22;;;7.60;99.90;;;;;;5091315;28;20059;-62
2022/04/26 05:03:18;;;;;;;14.55;3.85;;;7.50;99.90;;;;;;5092048;28;20054;-62
2022/04/26 05:05:43;;;;;;;;;;;7.70;99.90;;;;;;5092685;28;20478;-63
2022/04/26 05:08:10;;;;;;;6.80;3.90;;;7.80;99.90;;;;;;5092090;28;19971;-62
2022/04/26 05:10:36;;;;;;;9.55;4.25;;;7.80;99.90;;;;;;5092001;28;20365;-62
2022/04/26 05:13:02;;;;;;;9.57;3.65;;;7.80;99.90;;;;;;5092076;28;20055;-61
2022/04/26 05:15:28;;;;;;;;;;;7.50;99.90;;;;;;5092382;28;20792;-61
2022/04/26 05:17:54;;;;;;;9.10;3.88;;;7.70;99.90;;;;;;5092153;28;19931;-62
2022/04/26 05:20:20;;;;;;;7.78;3.67;;;7.40;99.90;;;;;;5091981;28;20040;-62
2022/04/26 05:25:34;;;;;;;14.48;4.05;;;8.00;99.90;;;;;;5091856;28;20055;-63
2022/04/26 05:28:00;;;;;;;14.02;4.22;;;7.50;99.90;;;;;;5092113;28;20423;-62
2022/04/26 05:30:26;;;;;;;12.27;4.20;;;8.00;99.90;;;;;;5091971;28;20056;-62
2022/04/26 05:32:52;;;;;;;9.40;4.18;;;8.10;99.90;;;;;;5091884;28;20055;-63
2022/04/26 05:35:20;;;;;;;13.88;3.80;;;;;;;;;;5082892;28;20756;-65
2022/04/26 05:37:46;;;;;;;18.58;3.80;;;8.20;99.90;;;;;;5092074;28;20423;-62
2022/04/26 05:40:12;;;;;;;5.80;3.42;;;7.80;99.90;;;;;;5093560;28;20044;-62
2022/04/26 05:42:38;;;;;;;8.98;4.05;;;7.90;99.90;;;;;;5094255;28;20047;-63
2022/04/26 05:45:04;;;;;;;11.48;4.40;;;7.90;99.90;;;;;;5093870;28;20440;-65
2022/04/26 05:47:30;;;;;;;6.75;3.35;;;7.80;99.90;;;;;;5093918;28;20044;-62
2022/04/26 05:49:56;;;;;;;13.38;4.30;;;7.90;99.90;;;;;;5094213;28;20486;-62
2022/04/26 05:52:24;;;;;;;11.73;3.85;;;7.80;99.90;;;;;;5086705;28;20399;-64
2022/04/26 05:54:50;;;;;;;4.78;3.30;;;7.80;99.90;;;;;;5088672;28;20110;-63
2022/04/26 05:57:16;;;;;;;8.55;4.30;;;8.10;99.90;;;;;;5094052;28;20048;-62
2022/04/26 05:59:42;;;;;;;10.90;4.38;;;8.00;99.90;;;;;;5093476;28;20036;-61
2022/04/26 06:02:07;;;;;;;9.95;4.05;;;7.50;99.90;;;;;;5093819;28;20412;-60
2022/04/26 06:04:33;;;;;;;8.55;3.85;;;7.90;99.90;;;;;;5090528;28;20396;-61
2022/04/26 06:06:59;;;;;;;12.27;3.97;;;8.10;99.90;;;;;;5093347;28;20467;-60
2022/04/26 06:09:24;;;;;;;7.88;3.80;;;8.10;99.90;;;;;;5092636;28;20531;-63
2022/04/26 06:11:50;;;;;;;14.40;4.07;;;8.20;99.90;;;;;;5093846;28;20071;-61
2022/04/26 06:14:16;;;;;;;15.93;4.00;;;8.20;99.90;;;;;;5081451;28;20043;-62
2022/04/26 06:16:41;;;;;;;5.82;3.67;;;8.40;99.90;;;;;;5092726;28;20145;-63
2022/04/26 06:19:07;;;;;;;7.22;3.95;;;8.30;99.90;;;;;;5094737;28;20131;-62
2022/04/26 06:21:33;;;;;;;6.00;3.65;;;8.30;99.90;;;;;;5094616;28;20071;-63
2022/04/26 06:23:58;;;;;;;7.35;3.28;;;8.50;99.90;;;;;;5093548;28;20132;-63
2022/04/26 06:26:24;;;;;;;8.52;3.10;;;8.50;99.90;;;;;;5093431;28;20055;-64
2022/04/26 06:28:50;;;;;;;5.15;3.33;;;8.20;99.90;;;;;;5094689;28;20442;-62
2022/04/26 06:31:15;;;;;;;4.00;2.75;;;8.20;99.90;;;;;;5094338;28;20054;-63
2022/04/26 06:33:41;;;;;;;13.40;3.38;;;8.30;99.90;;;;;;5094314;28;20528;-61
2022/04/26 06:36:07;;;;;;;6.60;3.40;;;8.40;99.90;;;;;;5094752;28;20048;-62
2022/04/26 06:38:32;;;;;;;6.65;3.38;;;8.30;99.90;;;;;;5093183;28;20055;-62
2022/04/26 06:40:58;;;;;;;9.10;3.97;;;8.20;99.90;;;;;;5094532;28;20510;-62
2022/04/26 06:43:23;;;;;;;15.55;4.57;;;8.00;99.90;;;;;;5094243;28;20048;-62
2022/04/26 06:45:49;;;;;;;9.80;3.22;;;8.20;99.90;;;;;;5094358;28;20048;-62
2022/04/26 06:48:17;;;;;;;10.95;3.90;;;8.70;99.90;;;;;;5094176;28;20459;-64
2022/04/26 06:50:44;;;;;;;11.43;3.78;;;8.60;99.90;;;;;;5092823;28;20479;-62
2022/04/26 06:53:10;;;;;;;5.80;2.92;;;9.00;99.90;;;;;;5094110;28;20415;-63
2022/04/26 06:55:36;;;;;;;12.43;4.20;;;8.80;99.90;;;;;;5094145;28;20040;-62
2022/04/26 06:58:02;;;;;;;5.07;3.28;;;8.80;99.90;;;;;;5094146;28;20044;-62
2022/04/26 07:00:28;;;;;;;6.43;2.92;;;8.50;99.90;;;;;;5094045;28;20051;-64
2022/04/26 07:02:54;;;;;;;7.88;3.03;;;8.90;99.90;;;;;;5094017;28;20040;-65
2022/04/26 07:05:21;;;;;;;5.03;2.60;;;8.80;99.90;;;;;;5093746;28;20056;-63
2022/04/26 07:07:49;;;;;;;9.98;3.45;;;8.80;99.90;;;;;;5093019;28;20474;-61
2022/04/26 07:10:15;;;;;;;7.93;3.13;;;9.20;99.90;;;;;;5093725;28;20070;-63
2022/04/26 07:12:41;;;;;;;8.77;3.17;;;9.60;99.90;;;;;;5093929;28;20051;-62
2022/04/26 07:15:07;;;;;;;7.25;2.85;;;9.30;99.90;;;;;;5093613;28;20450;-64
2022/04/26 07:17:33;;;;;;;7.28;3.33;;;9.50;99.90;;;;;;5093525;28;20052;-62
2022/04/26 07:19:59;;;;;;;7.70;3.20;;;9.40;99.90;;;;;;5092892;28;20394;-61
2022/04/26 07:22:29;;;;;;;5.82;2.70;;;9.70;99.90;;;;;;5093713;28;20044;-62
2022/04/26 07:24:56;;;;;;;8.43;3.33;;;9.40;99.90;;;;;;5092506;28;20094;-64
2022/04/26 07:27:22;;;;;;;;;;;11.10;99.90;;;;;;5093974;28;20097;-62
2022/04/26 07:29:52;;;;;;;5.93;2.47;;;9.40;99.90;;;;;;5093187;28;19981;-64
2022/04/26 07:32:18;;;;;;;7.72;3.15;;;9.70;99.90;;;;;;5093260;28;20131;-64
2022/04/26 07:34:45;;;;;;;6.88;3.20;;;9.70;99.90;;;;;;5092248;28;20066;-63
2022/04/26 07:37:11;;;;;;;11.82;3.30;;;9.70;99.90;;;;;;5093474;28;20043;-64
2022/04/26 07:39:37;;;;;;;6.97;2.75;;;9.60;99.90;;;;;;5093361;28;20039;-62
2022/04/26 07:42:04;;;;;;;5.55;2.75;;;10.40;99.90;;;;;;5093309;28;20130;-62
2022/04/26 07:44:31;;;;;;;8.23;3.13;;;9.60;99.90;;;;;;5093114;28;20126;-64
2022/04/26 07:46:58;;;;;;;4.78;2.97;;;9.60;99.90;;;;;;5093067;28;20079;-62
2022/04/26 07:49:24;;;;;;;9.77;2.55;;;9.70;99.90;;;;;;5091272;28;20071;-65
2022/04/26 07:51:54;;;;;;;5.85;2.65;;;10.00;99.90;;;;;;5090290;28;20385;-63
2022/04/26 07:54:20;;;;;;;4.97;3.03;;;9.90;99.90;;;;;;5106064;28;20479;-60
2022/04/26 07:56:46;;;;;;;3.88;2.90;;;9.70;99.90;;;;;;5111655;28;20184;-62
2022/04/26 07:59:14;;;;;;;6.32;3.08;;;9.60;99.90;;;;;;5112682;28;20043;-62
2022/04/26 08:01:40;;;;;;;8.00;3.05;;;9.90;99.90;;;;;;5112852;28;20407;-62
2022/04/26 08:04:05;;;;;;;7.53;2.80;;;10.80;99.90;;;;;;5111869;28;20043;-62
2022/04/26 08:06:31;;;;;;;8.13;2.80;;;10.60;99.90;;;;;;5112956;28;20047;-61
2022/04/26 08:08:58;;;;;;;7.47;3.30;;;10.90;99.90;;;;;;5112955;28;20047;-62
2022/04/26 08:11:24;;;;;;;4.65;2.95;;;10.40;99.90;;;;;;5112783;28;20057;-62
2022/04/26 08:13:50;;;;;;;;;;;10.90;99.90;;;;;;5113200;27;20490;-61
2022/04/26 08:16:16;;;;;;;5.82;2.85;;;11.40;99.90;;;;;;5111934;28;19931;-61
2022/04/26 08:18:42;;;;;;;6.88;3.00;;;10.50;99.90;;;;;;5112939;28;20083;-62
2022/04/26 08:21:08;;;;;;;4.15;2.90;;;11.50;99.90;;;;;;5112882;28;20191;-62
2022/04/26 08:27:22;;;;;;;6.43;2.67;;;10.50;99.90;;;;;;5112616;28;20048;-61
2022/04/26 08:29:04;;;;;;;4.15;2.50;;;10.40;99.90;;;;;;5072278;28;20573;-61
2022/04/26 08:31:30;;;;;;;3.25;2.40;;;10.60;99.90;;;;;;5072152;28;20096;-62
2022/04/26 08:33:56;;;;;;;7.35;3.15;;;10.70;99.90;;;;;;5072277;28;20062;-61
2022/04/26 08:36:22;;;;;;;5.25;2.75;;;10.80;99.90;;;;;;5071163;28;20044;-62
2022/04/26 08:38:48;;;;;;;8.93;2.72;;;10.70;99.90;;;;;;5072264;28;20044;-61
2022/04/26 08:41:15;;;;;;;5.45;2.70;;;11.10;99.90;;;;;;5071049;28;20071;-61
2022/04/26 08:43:41;;;;;;;7.40;2.63;;;11.90;99.90;;;;;;5072417;28;20050;-61
2022/04/26 08:46:07;;;;;;;11.70;2.45;;;10.80;99.90;;;;;;5072191;28;20044;-62
2022/04/26 08:51:16;;;;;;;5.80;2.95;;;12.20;99.90;;;;;;5072135;28;20118;-63
2022/04/26 08:53:44;;;;;;;5.40;2.30;;;12.00;99.90;;;;;;5070716;28;20187;-61
2022/04/26 08:56:10;;;;;;;6.50;2.60;;;11.30;99.90;;;;;;5072249;28;20048;-61
2022/04/26 08:58:36;;;;;;;12.55;2.42;;;11.40;99.90;;;;;;5072097;28;20044;-61
2022/04/26 09:01:08;;;;;;;5.55;2.25;;;11.40;99.90;;;;;;5072187;28;20591;-62
2022/04/26 09:03:39;;;;;;;5.35;2.70;;;10.80;99.90;;;;;;5070780;28;20408;-62
2022/04/26 09:06:13;;;;;;;8.32;2.55;;;11.20;99.90;;;;;;5071943;28;20045;-61
2022/04/26 09:08:40;;;;;;;5.22;3.10;;;11.30;99.90;;;;;;5071223;28;20580;-61
2022/04/26 09:11:27;;;;;;;6.30;2.38;;;11.10;99.90;;;;;;5071781;28;20476;-61
2022/04/26 09:13:52;;;;;;;4.75;2.20;;;12.20;99.90;;;;;;5075895;28;20052;-62
2022/04/26 09:16:21;;;;;;;4.47;2.47;;;11.10;99.90;;;;;;5075783;28;20518;-61
2022/04/26 09:18:52;;;;;;;6.60;2.33;;;11.40;99.90;;;;;;5082005;28;20816;-60
2022/04/26 09:21:18;;;;;;;7.30;2.60;;;11.20;99.90;;;;;;5095509;28;20066;-61
2022/04/26 09:23:46;;;;;;;5.78;2.53;;;11.40;99.90;;;;;;5095695;28;20039;-62
2022/04/26 09:26:17;;;;;;;5.68;2.17;;;10.70;99.90;;;;;;5095944;28;20059;-62
2022/04/26 09:28:43;;;;;;;7.63;2.58;;;10.90;99.90;;;;;;5095643;28;20058;-61
2022/04/26 09:31:30;;;;;;;7.55;2.58;;;11.00;99.90;;;;;;5095595;28;20052;-59
2022/04/26 09:34:13;;;;;;;4.93;2.28;;;10.80;99.90;;;;;;5095453;28;20056;-62
2022/04/26 09:36:48;;;;;;;5.72;2.35;;;11.00;99.90;;;;;;5095770;28;20051;-60
2022/04/26 09:39:18;;;;;;;6.47;2.70;;;12.30;99.90;;;;;;5095515;28;20087;-62
2022/04/26 09:41:49;;;;;;;9.00;2.80;;;11.00;99.90;;;;;;5095454;28;20051;-61
2022/04/26 09:44:15;;;;;;;6.47;2.40;;;10.80;99.90;;;;;;5095574;28;20048;-60
2022/04/26 09:46:40;;;;;;;5.18;2.05;;;11.10;99.90;;;;;;5094184;28;20438;-61
2022/04/26 09:49:09;;;;;;;6.18;2.92;;;12.20;99.90;;;;;;5095293;28;20051;-60
2022/04/26 09:51:39;;;;;;;3.67;2.45;;;13.10;99.90;;;;;;5095389;28;20084;-61
2022/04/26 09:54:05;;;;;;;4.20;2.40;;;12.20;99.90;;;;;;5095060;28;20101;-61
2022/04/26 09:56:32;;;;;;;4.63;1.90;;;12.40;99.90;;;;;;5095292;28;20047;-61
2022/04/26 09:59:00;;;;;;;3.60;2.05;;;12.60;99.90;;;;;;5094889;28;20048;-61
2022/04/26 10:01:39;;;;;;;7.55;2.63;;;11.30;99.90;;;;;;5093815;28;20052;-61
2022/04/26 10:04:08;;;;;;;5.47;2.83;;;11.60;99.90;;;;;;5094932;28;20047;-61
2022/04/26 10:06:35;;;;;;;4.70;2.20;;;11.50;99.90;;;;;;5094694;28;20048;-61
2022/04/26 10:09:03;;;;;;;6.15;2.53;;;12.10;99.90;;;;;;5095075;28;20039;-60
2022/04/26 10:11:30;;;;;;;6.28;2.70;;;10.70;99.90;;;;;;5094928;28;20055;-60
2022/04/26 10:13:56;;;;;;;5.90;2.58;;;11.50;99.90;;;;;;5094859;28;20132;-60
2022/04/26 10:16:23;;;;;;;6.22;2.85;;;11.30;99.90;;;;;;5093531;28;20055;-60
2022/04/26 10:18:50;;;;;;;7.35;3.00;;;11.30;99.90;;;;;;5094715;28;20048;-60
2022/04/26 10:21:21;;;;;;;9.07;2.42;;;11.30;99.90;;;;;;5094489;28;20085;-61
2022/04/26 10:23:56;;;;;;;4.43;2.47;;;12.10;99.90;;;;;;5093649;28;20051;-62
2022/04/26 10:26:26;;;;;;;4.22;2.42;;;11.50;99.90;;;;;;5094330;28;20496;-61
2022/04/26 10:28:53;;;;;;;9.07;2.70;;;12.00;99.90;;;;;;5094638;28;20054;-62
2022/04/26 10:31:38;;;;;;;5.22;2.60;;;11.90;99.90;;;;;;5094387;28;20093;-61
2022/04/26 10:34:20;;;;;;;4.50;2.65;;;12.10;99.90;;;;;;5094566;28;20055;-61
2022/04/26 10:36:47;;;;;;;11.73;2.90;;;11.70;99.90;;;;;;5094461;28;20488;-62
2022/04/26 10:39:13;;;;;;;3.67;2.50;;;12.00;99.90;;;;;;5094327;28;20131;-63
2022/04/26 10:41:43;;;;;;;8.27;2.70;;;13.10;99.90;;;;;;5094368;28;20135;-62
2022/04/26 10:44:26;;;;;;;5.68;2.63;;;12.20;99.90;;;;;;5093091;28;20468;-61
2022/04/26 10:47:01;;;;;;;5.38;2.70;;;12.30;99.90;;;;;;5094373;28;20093;-61
2022/04/26 10:49:32;;;;;;;8.07;3.00;;;12.60;99.90;;;;;;5094298;28;20483;-61
2022/04/26 10:52:22;;;;;;;8.65;2.72;;;12.90;99.90;;;;;;5094202;28;20051;-63
2022/04/26 10:55:03;;;;;;;5.85;2.42;;;12.80;99.90;;;;;;5090796;28;20156;-62
2022/04/26 10:57:30;;;;;;;6.32;2.78;;;12.50;99.90;;;;;;5094121;28;20052;-61
2022/04/26 11:00:03;;;;;;;5.60;2.83;;;12.90;99.90;;;;;;5092752;28;20052;-61
2022/04/26 11:02:35;;;;;;;8.00;2.90;;;12.80;99.90;;;;;;5092627;28;20105;-61
2022/04/26 11:05:04;;;;;;;3.78;2.25;;;13.40;99.90;;;;;;5093673;28;20126;-62
2022/04/26 11:07:31;;;;;;;13.85;2.83;;;13.10;99.90;;;;;;5093838;28;20376;-61
2022/04/26 11:10:00;;;;;;;5.30;2.50;;;13.20;99.90;;;;;;5093914;28;20047;-60
2022/04/26 11:12:30;;;;;;;5.18;2.38;;;12.70;99.90;;;;;;5093764;28;20105;-61
2022/04/26 11:15:07;;;;;;;6.53;2.63;;;12.60;99.90;;;;;;5093674;28;20044;-61
2022/04/26 11:17:34;;;;;;;9.63;2.88;;;12.80;99.90;;;;;;5093313;28;20066;-61
2022/04/26 11:20:03;;;;;;;5.75;2.50;;;12.90;99.90;;;;;;5093738;28;20131;-60
2022/04/26 11:22:29;;;;;;;3.65;2.47;;;12.80;99.90;;;;;;5093380;28;20083;-62
2022/04/26 11:28:00;;;;;;;7.38;2.50;;;12.30;99.90;;;;;;5093207;28;19927;-62
2022/04/26 11:30:39;;;;;;;8.32;2.53;;;12.50;99.90;;;;;;5092998;28;20062;-60
2022/04/26 11:33:11;;;;;;;4.88;2.30;;;12.10;99.90;;;;;;5093408;28;20094;-61
2022/04/26 11:35:39;;;;;;;7.03;3.80;;;12.60;99.90;;;;;;5092314;28;20602;-61
2022/04/26 11:38:13;;;;;;;5.15;2.40;;;12.70;99.90;;;;;;5093218;28;20056;-61
2022/04/26 11:40:41;;;;;;;4.75;2.70;;;12.50;99.90;;;;;;5093294;28;20047;-62
2022/04/26 11:43:12;;;;;;;5.25;2.20;;;13.10;99.90;;;;;;5093095;28;20104;-61
2022/04/26 11:45:44;;;;;;;7.68;2.65;;;12.50;99.90;;;;;;5093116;28;20047;-61
2022/04/26 11:48:17;;;;;;;14.95;2.45;;;12.40;99.90;;;;;;5092971;28;20091;-61
2022/04/26 11:50:46;;;;;;;6.03;2.20;;;12.30;99.90;;;;;;5103754;28;20051;-63
2022/04/26 11:53:14;;;;;;;6.30;2.58;;;12.50;99.90;;;;;;5102374;28;20506;-61
2022/04/26 11:56:00;;;;;;;3.92;2.60;;;12.60;99.90;;;;;;5096511;27;20058;-61
2022/04/26 11:58:37;;;;;;;4.05;2.13;;;12.00;99.90;;;;;;5092877;28;20051;-61
2022/04/26 12:01:04;;;;;;;;;;;12.10;99.90;;;;;;5093352;28;20094;-61
2022/04/26 12:03:29;;;;;;;4.03;2.35;;;12.10;99.90;;;;;;5075337;28;20018;-61
2022/04/26 12:06:00;;;;;;;6.65;2.80;;;13.20;99.90;;;;;;5073130;28;20132;-62
2022/04/26 12:08:28;;;;;;;6.28;2.55;;;12.30;99.90;;;;;;5072085;28;20064;-62
2022/04/26 12:11:11;;;;;;;7.45;2.75;;;12.20;99.90;;;;;;5072225;28;20503;-62
2022/04/26 12:13:37;;;;;;;2.85;2.40;;;11.90;99.90;;;;;;5072518;28;20060;-62
2022/04/26 12:16:16;;;;;;;3.88;2.50;;;12.80;99.90;;;;;;5072192;28;20055;-62
2022/04/26 12:18:52;;;;;;;7.00;3.67;;;12.20;99.90;;;;;;5072606;28;20059;-62
2022/04/26 12:21:19;;;;;;;5.55;2.53;;;12.10;99.90;;;;;;5072338;28;20083;-63
2022/04/26 12:23:45;;;;;;;8.25;2.67;;;12.40;99.90;;;;;;5072316;28;20048;-64
2022/04/26 12:26:11;;;;;;;8.00;3.05;;;12.50;99.90;;;;;;5086270;28;20510;-65
2022/04/26 12:28:48;;;;;;;4.32;2.60;;;12.00;99.90;;;;;;5102980;28;20459;-64
2022/04/26 12:31:29;;;;;;;9.23;2.90;;;12.30;99.90;;;;;;5112274;28;20051;-64
2022/04/26 12:34:12;;;;;;;5.57;2.28;;;12.40;99.90;;;;;;5112621;28;20051;-64
2022/04/26 12:37:16;;;;;;;4.35;2.78;;;11.80;99.90;;;;;;5112451;28;20494;-64
2022/04/26 12:39:45;;;;;;;4.35;2.08;;;12.40;99.90;;;;;;5029645;28;20088;-63
2022/04/26 12:42:14;;;;;;;6.60;2.80;;;12.30;99.90;;;;;;5098811;28;20056;-63
2022/04/26 12:45:04;;;;;;;3.90;2.13;;;12.30;99.90;;;;;;5112513;28;20090;-64
2022/04/26 12:50:33;;;;;;;5.05;2.08;;;12.10;99.90;;;;;;5116727;28;20113;-64
2022/04/26 12:53:20;;;;;;;4.03;2.45;;;12.40;99.90;;;;;;5117167;28;20059;-62
2022/04/26 12:55:46;;;;;;;7.10;2.22;;;12.30;99.90;;;;;;5116939;28;20589;-62
2022/04/26 12:58:14;;;;;;;4.60;2.00;;;12.40;99.90;;;;;;5103064;28;20131;-62
2022/04/26 13:00:44;;;;;;;4.40;2.20;;;13.90;99.90;;;;;;5096258;28;20075;-65
2022/04/26 13:03:12;;;;;;;5.40;2.30;;;12.60;99.90;;;;;;5096270;28;20444;-64
2022/04/26 13:05:50;;;;;;;8.15;2.35;;;12.40;99.90;;;;;;5096073;28;20044;-64
2022/04/26 13:08:18;;;;;;;7.28;2.47;;;12.20;99.90;;;;;;5096212;28;20445;-64
2022/04/26 13:10:45;;;;;;;4.30;2.45;;;11.90;99.90;;;;;;5095880;28;20479;-63
2022/04/26 13:13:12;;;;;;;7.32;2.75;;;12.50;99.90;;;;;;5096185;28;20059;-64
2022/04/26 13:15:38;;;;;;;7.28;3.22;;;12.30;99.90;;;;;;5095730;28;20086;-63
2022/04/26 13:18:05;;;;;;;7.68;2.40;;;12.50;99.90;;;;;;5095862;28;20083;-63
2022/04/26 13:20:32;;;;;;;6.07;2.38;;;12.50;99.90;;;;;;5095939;28;20058;-64
2022/04/26 13:22:58;;;;;;;5.88;2.15;;;12.30;99.90;;;;;;5095751;28;20403;-63
2022/04/26 13:25:24;;;;;;;3.40;2.13;;;11.90;99.90;;;;;;5096015;28;20077;-64
2022/04/26 13:27:50;;;;;;;4.68;2.30;;;12.10;99.90;;;;;;5095854;28;20043;-64
2022/04/26 13:30:17;;;;;;;6.40;2.60;;;12.30;99.90;;;;;;5095584;28;20475;-63
2022/04/26 13:32:43;;;;;;;5.32;2.28;;;12.10;99.90;;;;;;5095594;28;20551;-63
2022/04/26 13:35:09;;;;;;;4.95;2.50;;;12.00;99.90;;;;;;5095533;28;20080;-62
2022/04/26 13:37:35;;;;;;;6.57;2.35;;;12.50;99.90;;;;;;5095608;28;20130;-63
2022/04/26 13:40:05;;;;;;;3.88;2.70;;;12.90;99.90;;;;;;5095227;28;20472;-64
2022/04/26 13:42:31;;;;;;;6.72;2.47;;;12.60;99.90;;;;;;5095697;28;20044;-63
2022/04/26 13:44:58;;;;;;;5.57;2.80;;;12.50;99.90;;;;;;5095291;28;20074;-62
2022/04/26 13:47:25;;;;;;;3.75;2.35;;;13.70;99.90;;;;;;5095598;28;20056;-63
2022/04/26 13:49:53;;;;;;;5.60;2.13;;;12.40;99.90;;;;;;5095332;28;20051;-62
2022/04/26 13:52:22;;;;;;;5.75;2.40;;;12.00;99.90;;;;;;5094174;28;20105;-63
2022/04/26 13:54:49;;;;;;;4.78;2.40;;;12.00;99.90;;;;;;5095330;28;20043;-63
2022/04/26 13:57:16;;;;;;;7.00;2.53;;;12.30;99.90;;;;;;5094568;28;20072;-63
2022/04/26 13:59:43;;;;;;;4.53;2.40;;;12.60;99.90;;;;;;5095097;28;20040;-64
2022/04/26 14:02:08;;;;;;;5.80;2.60;;;12.50;99.90;;;;;;5094862;28;20044;-63
2022/04/26 14:04:34;;;;;;;6.53;2.63;;;12.60;99.90;;;;;;5095000;28;20043;-64
2022/04/26 14:07:00;;;;;;;;;;;13.30;99.90;;;;;;5095548;28;20669;-63
2022/04/26 14:09:26;;;;;;;7.72;2.42;;;13.70;99.90;;;;;;5094918;28;20018;-64
2022/04/26 14:11:54;;;;;;;;;;;14.60;99.90;;;;;;5095153;28;20055;-62
2022/04/26 14:22:33;;;;;;;6.05;2.30;;;13.90;99.90;;;;;;5115025;28;20054;-62
2022/04/26 14:24:59;;;;;;;;;;;13.30;99.90;;;;;;5091650;28;20488;-63
2022/04/26 14:27:26;;;;;;;6.60;2.35;;;13.30;99.90;;;;;;5093495;28;19927;-61
2022/04/26 14:29:52;;;;;;;4.00;1.98;;;13.70;99.90;;;;;;5092410;28;20109;-63
2022/04/26 14:32:18;;;;;;;5.65;2.15;;;14.00;99.90;;;;;;5094093;28;20052;-61
2022/04/26 14:34:43;;;;;;;;;;;13.60;99.90;;;;;;5090585;28;20052;-62
2022/04/26 14:37:10;;;;;;;6.55;2.42;;;13.50;99.90;;;;;;5091308;28;19920;-63
2022/04/26 14:39:36;;;;;;;4.80;2.28;;;13.00;99.90;;;;;;5094121;28;20037;-62
2022/04/26 14:42:02;;;;;;;5.07;2.28;;;12.90;99.90;;;;;;5094352;28;20128;-61
2022/04/26 14:44:28;;;;;;;4.50;2.30;;;13.00;99.90;;;;;;5094572;28;20052;-61
2022/04/26 14:46:54;;;;;;;;;;;13.50;99.90;;;;;;5094609;28;20040;-62
2022/04/26 14:49:19;;;;;;;5.50;2.50;;;13.90;99.90;;;;;;5093174;28;20296;-62
2022/04/26 14:51:46;;;;;;;;;;;14.60;99.90;;;;;;5094750;28;20043;-62
2022/04/26 14:54:12;;;;;;;4.30;2.17;;;15.20;99.90;;;;;;5094230;28;19924;-63
2022/04/26 14:56:38;;;;;;;6.00;2.15;;;15.10;99.90;;;;;;5094117;28;20044;-63
2022/04/26 14:59:06;;;;;;;5.32;2.35;;;15.00;99.90;;;;;;5094110;28;20444;-63
2022/04/26 15:01:32;;;;;;;3.85;2.38;;;15.30;99.90;;;;;;5094274;28;20079;-63
2022/04/26 15:03:58;;;;;;;6.32;2.67;;;15.20;99.90;;;;;;5092660;28;20160;-62
2022/04/26 15:06:23;;;;;;;4.72;2.42;;;14.60;99.90;;;;;;5092785;28;20051;-62
2022/04/26 15:11:34;;;;;;;6.28;2.45;;;13.50;99.90;;;;;;5093769;28;20112;-62
2022/04/26 15:16:47;;;;;;;4.95;2.20;;;14.00;99.90;;;;;;5093825;28;20108;-63
2022/04/26 15:19:14;;;;;;;3.28;2.13;;;14.00;99.90;;;;;;5093673;28;20052;-64
2022/04/26 15:21:44;;;;;;;6.78;2.10;;;14.30;99.90;;;;;;5093549;28;20055;-62
2022/04/26 15:24:11;;;;;;;8.45;2.17;;;15.20;99.90;;;;;;5092755;28;20052;-62
2022/04/26 15:26:37;;;;;;;4.25;1.80;;;14.90;99.90;;;;;;5093928;28;20048;-62
2022/04/26 15:29:07;;;;;;;6.40;2.10;;;15.00;99.90;;;;;;5093491;28;20051;-62
2022/04/26 15:31:33;;;;;;;5.00;2.33;;;14.80;99.90;;;;;;5109007;28;20083;-62
2022/04/26 15:34:00;;;;;;;9.10;2.00;;;14.40;99.90;;;;;;5113639;28;20442;-61
2022/04/26 15:36:25;;;;;;;4.32;2.00;;;13.90;99.90;;;;;;5113498;28;20479;-62
2022/04/26 15:38:58;;;;;;;6.68;1.98;;;14.30;99.90;;;;;;5113607;28;20048;-62
2022/04/26 15:41:24;;;;;;;4.93;2.17;;;14.80;99.90;;;;;;5113498;28;20122;-62
2022/04/26 15:43:50;;;;;;;5.10;2.10;;;15.10;99.90;;;;;;5113530;28;20040;-62
2022/04/26 15:46:16;;;;;;;4.78;2.03;;;15.50;99.90;;;;;;5113527;28;20126;-62
2022/04/26 15:48:47;;;;;;;12.25;2.13;;;15.10;99.90;;;;;;5113414;28;20130;-62
2022/04/26 15:51:16;;;;;;;4.10;2.08;;;14.90;99.90;;;;;;5113470;28;20104;-62
2022/04/26 15:53:42;;;;;;;6.18;2.20;;;14.40;99.90;;;;;;5112379;28;20474;-61
2022/04/26 15:56:08;;;;;;;3.17;1.83;;;13.90;99.90;;;;;;5112323;28;20051;-61
2022/04/26 15:58:34;;;;;;;2.22;1.90;;;13.90;99.90;;;;;;5113222;28;20043;-64
2022/04/26 16:00:59;;;;;;;7.50;2.67;;;14.60;99.90;;;;;;5113301;28;20065;-62
2022/04/26 16:03:25;;;;;;;5.88;2.20;;;14.80;99.90;;;;;;5113139;28;20051;-61
2022/04/26 16:05:51;;;;;;;3.42;2.15;;;15.80;99.90;;;;;;5113207;28;20055;-61
2022/04/26 16:08:17;;;;;;;4.47;2.10;;;15.30;99.90;;;;;;5113362;28;20043;-62
2022/04/26 16:21:40;;;;;;;5.45;2.30;;;13.20;99.90;;;;;;5112645;28;20108;-61
2022/04/26 16:24:06;;;;;;;6.60;2.17;;;13.40;99.90;;;;;;5112919;28;20039;-61
2022/04/26 16:26:34;;;;;;;2.53;1.70;;;13.60;99.90;;;;;;5112889;28;20497;-61
2022/04/26 16:29:01;;;;;;;3.80;1.88;;;13.80;99.90;;;;;;5112849;28;20118;-63
2022/04/26 16:31:28;;;;;;;3.58;1.88;;;14.40;99.90;;;;;;5111302;28;20109;-62
2022/04/26 16:33:58;;;;;;;4.40;2.60;;;14.40;99.90;;;;;;5112848;28;20052;-62
2022/04/26 16:36:28;;;;;;;3.20;1.95;;;14.50;99.90;;;;;;5112923;28;20193;-61
2022/04/26 16:38:55;;;;;;;4.90;2.30;;;14.00;99.90;;;;;;5112752;28;20396;-62
2022/04/26 16:41:21;;;;;;;7.47;2.22;;;13.60;99.90;;;;;;5112977;28;20111;-61
2022/04/26 16:43:48;;;;;;;;;;;13.00;99.90;;;;;;5111946;28;20043;-62
2022/04/26 16:46:19;;;;;;;5.22;1.88;;;13.80;99.90;;;;;;5112880;28;20340;-62
2022/04/26 16:48:45;;;;;;;6.88;2.28;;;13.50;99.90;;;;;;5095379;28;20382;-62
2022/04/26 16:51:11;;;;;;;5.78;2.22;;;13.80;99.90;;;;;;5112481;28;20104;-62
2022/04/26 16:53:38;;;;;;;4.15;2.03;;;14.20;99.90;;;;;;5112932;28;20104;-61
2022/04/26 16:56:04;;;;;;;3.28;1.83;;;15.50;99.90;;;;;;5112763;28;20106;-61
2022/04/26 16:58:31;;;;;;;6.53;2.10;;;13.90;99.90;;;;;;5112728;28;20089;-62
2022/04/26 17:00:57;;;;;;;2.67;2.00;;;13.50;99.90;;;;;;5112642;28;20044;-62
2022/04/26 17:03:23;;;;;;;5.38;2.20;;;13.10;99.90;;;;;;5112646;28;20056;-62
2022/04/26 17:05:50;;;;;;;5.50;2.33;;;14.30;99.90;;;;;;5112427;28;20092;-62
2022/04/26 17:08:17;;;;;;;6.25;1.70;;;13.70;99.90;;;;;;5112662;28;20055;-62
2022/04/26 17:10:44;;;;;;;4.40;1.80;;;13.30;99.90;;;;;;5112596;28;20040;-62
2022/04/26 17:13:10;;;;;;;2.63;1.60;;;13.50;99.90;;;;;;5112557;28;20047;-62